Cambridge, Canada
Current Conditions -  °F | °C
As of 6:00 AM on Tuesday 21 Oct 2014 (Local Time) from CYKF Reporting Station
Light Rain Light Rain  
Wind Chill: 42°   Ceiling: 4800
Heat Index: 46°   Visibility: 7mi
Dew Point: 45°   Wind: 9mph
Humidity: 93%   Direction: 300°WNW
Pressure: 29.8"   Gusts: NA
Location:  43.38°N, 80.32°W
Report Text: CYKF 211000Z AUTO 30008KT 7SM -RA SCT014 BKN048 OVC060 08/07 A2980 RMK PCPN 1.8MM PAST HR SLP094
Loading
Personal Weather Stations






























Interactive Weather Map New forecast layout! Learn more

10-Day Weather Forecast

Advertisements
Track Severe Weather on mobile